createdAt,value
2019-02-18T00:00:43.693Z,23.40
2019-02-18T00:03:13.030Z,22.77
2019-02-18T00:05:42.870Z,21.47
2019-02-18T00:08:12.217Z,22.40
2019-02-18T00:10:41.775Z,22.43
2019-02-18T00:13:11.233Z,22.07
2019-02-18T00:15:40.667Z,21.77
2019-02-18T00:18:10.018Z,22.13
2019-02-18T00:20:39.497Z,24.03
2019-02-18T00:23:08.892Z,23.00
2019-02-18T00:25:38.218Z,23.67
2019-02-18T00:28:07.685Z,22.73
2019-02-18T00:30:37.038Z,22.67
2019-02-18T00:33:06.464Z,23.37
2019-02-18T00:35:35.839Z,23.10
2019-02-18T00:38:05.243Z,23.50
2019-02-18T00:40:34.662Z,22.97
2019-02-18T00:43:04.102Z,23.90
2019-02-18T00:45:33.480Z,23.03
2019-02-18T00:48:02.934Z,24.07
2019-02-18T00:50:32.294Z,22.67
2019-02-18T00:53:03.933Z,22.73
2019-02-18T00:55:32.799Z,23.40
2019-02-18T00:58:02.239Z,23.03
2019-02-18T01:00:31.654Z,22.37
2019-02-18T01:03:00.989Z,24.07
2019-02-18T01:05:30.441Z,22.80
2019-02-18T01:07:59.950Z,22.93
2019-02-18T01:10:29.448Z,25.20
2019-02-18T01:12:58.806Z,24.03
2019-02-18T01:15:28.256Z,24.43
2019-02-18T01:17:57.615Z,26.13
2019-02-18T01:20:27.465Z,26.17
2019-02-18T01:22:56.824Z,25.43
2019-02-18T01:25:26.282Z,26.80
2019-02-18T01:27:55.823Z,27.30
2019-02-18T01:30:25.223Z,27.53
2019-02-18T01:32:54.524Z,27.43
2019-02-18T01:35:24.042Z,26.97
2019-02-18T01:37:53.482Z,27.53
2019-02-18T01:40:22.920Z,27.20
2019-02-18T01:42:52.282Z,27.90
2019-02-18T01:45:21.803Z,27.00
2019-02-18T01:47:51.351Z,28.27
2019-02-18T01:50:20.751Z,29.07
2019-02-18T01:52:50.157Z,29.03
2019-02-18T01:55:19.609Z,28.03
2019-02-18T01:57:49.052Z,29.20
2019-02-18T02:00:18.356Z,29.17
2019-02-18T02:02:47.778Z,28.93
2019-02-18T02:05:17.503Z,29.67
2019-02-18T02:07:55.965Z,29.20
2019-02-18T02:10:17.975Z,30.50
2019-02-18T02:12:47.313Z,29.07
2019-02-18T02:15:20.357Z,30.37
2019-02-18T02:17:49.708Z,28.97
2019-02-18T02:20:19.302Z,29.10
2019-02-18T02:22:48.701Z,28.93
2019-02-18T02:25:18.016Z,28.80
2019-02-18T02:27:47.510Z,29.23
2019-02-18T02:30:17.027Z,30.60
2019-02-18T02:32:46.437Z,28.73
2019-02-18T02:35:15.786Z,31.73
2019-02-18T02:37:45.419Z,31.33
2019-02-18T02:40:14.809Z,30.73
2019-02-18T02:42:44.330Z,29.33
2019-02-18T02:45:13.934Z,29.37
2019-02-18T02:47:43.354Z,27.83
2019-02-18T02:50:12.799Z,29.03
2019-02-18T02:52:42.159Z,30.27
2019-02-18T02:55:11.610Z,29.83
2019-02-18T02:57:40.974Z,28.67
2019-02-18T03:00:10.954Z,29.13
2019-02-18T03:02:40.254Z,30.00
2019-02-18T03:05:09.970Z,29.63
2019-02-18T03:07:39.385Z,30.13
2019-02-18T03:10:08.839Z,29.77
2019-02-18T03:12:38.227Z,31.47
2019-02-18T03:15:07.919Z,30.33
2019-02-18T03:17:37.340Z,30.93
2019-02-18T03:20:07.264Z,29.97
2019-02-18T03:22:36.780Z,31.70
2019-02-18T03:25:28.535Z,31.37
2019-02-18T03:28:01.571Z,33.17
2019-02-18T03:30:49.817Z,32.10
2019-02-18T03:33:22.848Z,33.20
2019-02-18T03:35:52.309Z,33.53
2019-02-18T03:38:31.226Z,34.13
2019-02-18T03:41:02.788Z,33.53
2019-02-18T03:43:24.110Z,33.30
2019-02-18T03:45:53.545Z,34.30
2019-02-18T03:48:22.847Z,33.00
2019-02-18T03:50:53.250Z,34.53
2019-02-18T03:53:22.710Z,34.63
2019-02-18T03:55:52.131Z,35.13
2019-02-18T03:58:21.687Z,36.00
2019-02-18T04:00:51.410Z,37.90
2019-02-18T04:03:20.845Z,36.30
2019-02-18T04:05:50.369Z,38.07
2019-02-18T04:08:19.693Z,40.13
2019-02-18T04:10:49.069Z,39.70
2019-02-18T04:13:18.490Z,38.37
2019-02-18T04:15:48.271Z,41.67
2019-02-18T04:18:17.618Z,42.37
2019-02-18T04:20:47.023Z,42.43
2019-02-18T04:23:16.500Z,41.83
2019-02-18T04:25:46.132Z,41.23
2019-02-18T04:28:15.597Z,40.87
2019-02-18T04:30:44.994Z,40.07
2019-02-18T04:33:14.351Z,39.77
2019-02-18T04:35:43.789Z,39.97
2019-02-18T04:38:13.224Z,42.70
2019-02-18T04:40:42.589Z,42.03
2019-02-18T04:43:12.021Z,42.43
2019-02-18T04:45:41.398Z,42.90
2019-02-18T04:48:10.753Z,42.33
2019-02-18T04:50:40.193Z,43.63
2019-02-18T04:53:09.586Z,41.93
2019-02-18T04:55:39.278Z,41.63
2019-02-18T04:58:08.726Z,44.70
2019-02-18T05:00:38.217Z,43.47
2019-02-18T05:03:07.595Z,43.13
2019-02-18T05:05:36.959Z,44.83
2019-02-18T05:08:06.348Z,46.47
2019-02-18T05:10:35.786Z,50.43
2019-02-18T05:13:05.224Z,46.53
2019-02-18T05:15:34.615Z,45.90
2019-02-18T05:18:03.977Z,46.00
2019-02-18T05:20:33.439Z,46.87
2019-02-18T05:23:02.897Z,45.13
2019-02-18T05:25:32.282Z,47.27
2019-02-18T05:28:01.699Z,56.20
2019-02-18T05:30:31.151Z,48.63
2019-02-18T05:33:00.549Z,56.20
2019-02-18T05:35:29.978Z,55.23
2019-02-18T05:37:59.303Z,56.50
2019-02-18T05:40:28.652Z,49.67
2019-02-18T05:42:58.066Z,57.90
2019-02-18T05:45:28.475Z,49.67
2019-02-18T05:47:57.813Z,48.53
2019-02-18T05:50:27.200Z,49.63
2019-02-18T05:52:56.588Z,50.20
2019-02-18T05:55:25.863Z,53.03
2019-02-18T05:57:55.359Z,45.90
2019-02-18T06:00:24.800Z,49.33
2019-02-18T06:02:54.366Z,48.00
2019-02-18T06:05:24.067Z,48.07
2019-02-18T06:07:53.459Z,49.73
2019-02-18T06:10:22.897Z,50.37
2019-02-18T06:12:52.250Z,51.67
2019-02-18T06:15:21.718Z,56.57
2019-02-18T06:17:51.056Z,56.73
2019-02-18T06:20:20.507Z,53.47
2019-02-18T06:22:49.941Z,51.20
2019-02-18T06:25:19.371Z,49.53
2019-02-18T06:27:51.469Z,46.00
2019-02-18T06:30:20.019Z,47.67
2019-02-18T06:32:49.402Z,49.83
2019-02-18T06:35:18.770Z,49.67
2019-02-18T06:37:48.176Z,47.70
2019-02-18T06:40:17.867Z,48.20
2019-02-18T06:42:47.270Z,48.00
2019-02-18T06:45:35.655Z,46.97
2019-02-18T06:48:26.675Z,47.63
2019-02-18T06:50:56.032Z,49.33
2019-02-18T06:53:25.483Z,50.33
2019-02-18T06:55:54.941Z,50.23
2019-02-18T06:58:42.398Z,46.90
2019-02-18T07:01:29.708Z,42.10
2019-02-18T07:04:17.133Z,45.20
2019-02-18T07:07:02.159Z,49.00
2019-02-18T07:09:50.430Z,48.53
2019-02-18T07:12:18.769Z,46.93
2019-02-18T07:14:48.144Z,48.70
2019-02-18T07:17:17.610Z,50.83
2019-02-18T07:19:46.959Z,50.00
2019-02-18T07:22:16.409Z,47.80
2019-02-18T07:24:45.766Z,46.23
2019-02-18T07:27:15.226Z,47.37
2019-02-18T07:29:44.610Z,46.87
2019-02-18T07:32:13.948Z,45.87
2019-02-18T07:34:43.254Z,47.67
2019-02-18T07:37:12.719Z,47.33
2019-02-18T07:39:42.095Z,47.47
2019-02-18T07:42:11.514Z,41.33
2019-02-18T07:44:40.866Z,50.57
2019-02-18T07:47:10.350Z,43.80
2019-02-18T07:49:39.662Z,50.43
2019-02-18T07:52:09.151Z,49.10
2019-02-18T07:54:38.533Z,50.67
2019-02-18T07:57:07.934Z,49.67
2019-02-18T07:59:37.378Z,50.10
2019-02-18T08:02:06.817Z,50.67
2019-02-18T08:04:36.175Z,43.30
2019-02-18T08:07:05.681Z,42.50
2019-02-18T08:09:35.087Z,51.13
2019-02-18T08:12:04.482Z,51.57
2019-02-18T08:14:34.090Z,49.50
2019-02-18T08:17:03.498Z,53.50
2019-02-18T08:19:32.970Z,51.37
2019-02-18T08:22:02.344Z,60.60
2019-02-18T08:24:31.808Z,46.03
2019-02-18T08:27:01.278Z,43.00
2019-02-18T08:29:30.760Z,41.77
2019-02-18T08:32:00.171Z,41.37
2019-02-18T08:34:29.619Z,42.17
2019-02-18T08:36:59.119Z,41.20
2019-02-18T08:39:28.569Z,41.30
2019-02-18T08:41:58.158Z,42.37
2019-02-18T08:44:27.496Z,42.83
2019-02-18T08:46:56.831Z,39.00
2019-02-18T08:49:26.396Z,38.90
2019-02-18T08:51:55.788Z,38.83
2019-02-18T08:54:25.126Z,36.40
2019-02-18T08:56:54.580Z,37.63
2019-02-18T08:59:23.939Z,38.63
2019-02-18T09:01:53.401Z,36.17
2019-02-18T09:04:22.945Z,36.37
2019-02-18T09:06:52.353Z,34.33
2019-02-18T09:09:21.867Z,31.90
2019-02-18T09:11:51.306Z,30.97
2019-02-18T09:14:20.702Z,33.03
2019-02-18T09:16:50.121Z,32.97
2019-02-18T09:19:19.454Z,31.83
2019-02-18T09:21:50.390Z,31.23
2019-02-18T09:24:27.234Z,30.83
2019-02-18T09:26:56.786Z,30.40
2019-02-18T09:29:26.185Z,27.63
2019-02-18T09:31:55.638Z,26.33
2019-02-18T09:34:25.013Z,29.50
2019-02-18T09:36:56.126Z,28.03
2019-02-18T09:39:31.133Z,30.10
2019-02-18T09:41:56.893Z,28.80
2019-02-18T09:44:26.346Z,27.53
2019-02-18T09:46:55.711Z,24.67
2019-02-18T09:49:25.178Z,26.73
2019-02-18T09:51:54.482Z,26.80
2019-02-18T09:54:24.007Z,26.77
2019-02-18T09:56:53.527Z,26.97
2019-02-18T09:59:22.898Z,26.07
2019-02-18T10:01:52.350Z,26.63
2019-02-18T10:04:22.693Z,31.37
2019-02-18T10:06:52.162Z,24.90
2019-02-18T10:09:21.630Z,23.17
2019-02-18T10:11:51.035Z,23.23
2019-02-18T10:14:20.439Z,21.93
2019-02-18T10:16:50.038Z,21.27
2019-02-18T10:19:19.444Z,21.30
2019-02-18T10:21:49.954Z,21.13
2019-02-18T10:24:19.484Z,20.33
2019-02-18T10:26:48.948Z,20.83
2019-02-18T10:29:18.288Z,19.97
2019-02-18T10:31:47.739Z,19.53
2019-02-18T10:34:17.180Z,20.63
2019-02-18T10:36:46.584Z,19.37
2019-02-18T10:39:15.994Z,15.73
2019-02-18T10:41:45.458Z,17.23
2019-02-18T10:44:14.867Z,18.73
2019-02-18T10:46:44.333Z,17.13
2019-02-18T10:49:19.703Z,10.50
2019-02-18T10:51:45.030Z,10.10
2019-02-18T10:54:14.605Z,9.73
2019-02-18T10:56:44.103Z,9.77
2019-02-18T10:59:13.506Z,9.50
2019-02-18T11:01:42.954Z,12.47
2019-02-18T11:04:13.499Z,14.57
2019-02-18T11:06:42.980Z,13.40
2019-02-18T11:09:12.446Z,12.27
2019-02-18T11:11:41.799Z,12.37
2019-02-18T11:14:11.269Z,13.70
2019-02-18T11:16:41.010Z,14.07
2019-02-18T11:19:10.449Z,14.40
2019-02-18T11:21:39.813Z,13.67
2019-02-18T11:24:09.282Z,12.67
2019-02-18T11:26:38.670Z,12.90
2019-02-18T11:29:08.634Z,11.90
2019-02-18T11:31:38.033Z,12.83
2019-02-18T11:34:07.488Z,12.40
2019-02-18T11:36:36.937Z,11.90
2019-02-18T11:39:13.255Z,11.50
2019-02-18T11:41:43.117Z,10.80
2019-02-18T11:44:12.576Z,10.00
2019-02-18T11:46:42.122Z,10.93
2019-02-18T11:49:11.551Z,9.73
2019-02-18T11:51:41.034Z,9.47
2019-02-18T11:54:10.505Z,10.63
2019-02-18T11:56:39.945Z,11.23
2019-02-18T11:59:09.378Z,11.80
2019-02-18T12:01:38.738Z,10.87
2019-02-18T12:04:08.195Z,11.67
2019-02-18T12:06:40.159Z,13.23
2019-02-18T12:09:09.906Z,12.23
2019-02-18T12:11:39.352Z,11.93
2019-02-18T12:14:08.913Z,12.33
2019-02-18T12:16:38.323Z,12.50
2019-02-18T12:19:07.762Z,12.50
2019-02-18T12:21:37.275Z,10.77
2019-02-18T12:24:06.855Z,11.93
2019-02-18T12:26:36.390Z,11.63
2019-02-18T12:29:05.850Z,11.97
2019-02-18T12:31:35.336Z,11.83
2019-02-18T12:34:04.758Z,11.40
2019-02-18T12:36:34.205Z,12.70
2019-02-18T12:39:05.124Z,10.93
2019-02-18T12:41:34.558Z,10.93
2019-02-18T12:44:04.091Z,11.13
2019-02-18T12:46:33.453Z,11.40
2019-02-18T12:49:02.955Z,11.43
2019-02-18T12:51:32.460Z,11.07
2019-02-18T12:54:09.412Z,11.70
2019-02-18T12:56:33.315Z,12.07
2019-02-18T12:59:02.751Z,12.93
2019-02-18T13:01:32.234Z,11.33
2019-02-18T13:04:01.668Z,11.97
2019-02-18T13:06:31.125Z,12.53
2019-02-18T13:09:00.616Z,13.17
2019-02-18T13:11:30.091Z,12.00
2019-02-18T13:13:59.520Z,11.33
2019-02-18T13:16:29.037Z,12.43
2019-02-18T13:18:58.495Z,12.53
2019-02-18T13:21:27.945Z,13.27
2019-02-18T13:23:57.596Z,12.80
2019-02-18T13:26:27.093Z,12.90
2019-02-18T13:28:56.910Z,13.83
2019-02-18T13:31:26.394Z,13.93
2019-02-18T13:33:55.834Z,12.03
2019-02-18T13:36:25.257Z,13.47
2019-02-18T13:38:54.632Z,14.90
2019-02-18T13:41:24.222Z,21.30
2019-02-18T13:43:53.943Z,16.03
2019-02-18T13:46:23.344Z,12.77
2019-02-18T13:48:52.798Z,14.53
2019-02-18T13:51:24.174Z,13.10
2019-02-18T13:53:53.345Z,14.27
2019-02-18T13:56:22.679Z,14.23
2019-02-18T13:58:52.378Z,13.03
2019-02-18T14:01:21.802Z,15.17
2019-02-18T14:03:51.200Z,13.50
2019-02-18T14:06:20.658Z,13.17
2019-02-18T14:08:50.311Z,11.93
2019-02-18T14:11:19.740Z,10.63
2019-02-18T14:13:49.231Z,12.57
2019-02-18T14:16:18.675Z,12.73
2019-02-18T14:18:48.167Z,11.33
2019-02-18T14:21:17.681Z,11.50
2019-02-18T14:23:47.190Z,13.93
2019-02-18T14:26:16.622Z,13.30
2019-02-18T14:28:46.046Z,14.60
2019-02-18T14:31:15.502Z,18.20
2019-02-18T14:33:44.989Z,31.13
2019-02-18T14:36:14.482Z,20.07
2019-02-18T14:38:44.028Z,21.73
2019-02-18T14:41:13.461Z,17.50
2019-02-18T14:43:42.917Z,12.57
2019-02-18T14:46:12.354Z,13.70
2019-02-18T14:48:41.835Z,12.57
2019-02-18T14:51:11.417Z,11.93
2019-02-18T14:53:40.913Z,12.57
2019-02-18T14:56:13.486Z,12.03
2019-02-18T14:58:44.918Z,13.03
2019-02-18T15:01:14.350Z,11.03
2019-02-18T15:03:43.862Z,12.83
2019-02-18T15:06:13.310Z,13.43
2019-02-18T15:08:42.749Z,12.27
2019-02-18T15:11:12.528Z,13.63
2019-02-18T15:13:41.980Z,12.63
2019-02-18T15:16:11.495Z,13.10
2019-02-18T15:18:40.930Z,12.53
2019-02-18T15:21:10.547Z,13.13
2019-02-18T15:23:39.957Z,12.20
2019-02-18T15:26:09.486Z,12.83
2019-02-18T15:28:39.007Z,13.27
2019-02-18T15:31:08.769Z,13.10
2019-02-18T15:33:38.198Z,14.77
2019-02-18T15:36:07.673Z,15.10
2019-02-18T15:38:37.079Z,14.07
2019-02-18T15:41:06.525Z,16.00
2019-02-18T15:43:36.039Z,15.53
2019-02-18T15:46:05.574Z,15.07
2019-02-18T15:48:36.404Z,15.27
2019-02-18T15:51:06.174Z,15.40
2019-02-18T15:53:35.994Z,16.33
2019-02-18T15:56:05.342Z,15.80
2019-02-18T15:58:34.809Z,14.47
2019-02-18T16:01:04.654Z,16.13
2019-02-18T16:03:34.073Z,15.20
2019-02-18T16:06:03.451Z,15.40
2019-02-18T16:08:33.226Z,16.23
2019-02-18T16:11:02.690Z,17.40
2019-02-18T16:13:32.282Z,17.07
2019-02-18T16:16:01.706Z,16.07
2019-02-18T16:18:31.407Z,17.80
2019-02-18T16:21:00.853Z,17.17
2019-02-18T16:23:30.816Z,16.87
2019-02-18T16:26:00.210Z,18.10
2019-02-18T16:28:29.705Z,18.20
2019-02-18T16:30:59.339Z,17.70
2019-02-18T16:33:28.826Z,18.40
2019-02-18T16:35:59.983Z,19.97
2019-02-18T16:38:29.366Z,18.97
2019-02-18T16:40:58.851Z,20.37
2019-02-18T16:43:28.690Z,20.33
2019-02-18T16:45:58.194Z,31.37
2019-02-18T16:48:28.128Z,25.27
2019-02-18T16:50:57.866Z,24.27
2019-02-18T16:53:27.423Z,24.47
2019-02-18T16:55:58.310Z,25.43
2019-02-18T16:58:29.768Z,24.97
2019-02-18T17:01:00.530Z,26.27
2019-02-18T17:03:30.034Z,27.37
2019-02-18T17:05:59.517Z,29.27
2019-02-18T17:08:28.970Z,29.07
2019-02-18T17:10:58.347Z,27.87
2019-02-18T17:13:27.836Z,27.03
2019-02-18T17:15:57.286Z,28.27
2019-02-18T17:18:26.841Z,30.23
2019-02-18T17:20:56.287Z,31.43
2019-02-18T17:23:25.740Z,33.17
2019-02-18T17:25:55.185Z,34.50
2019-02-18T17:28:24.668Z,37.77
2019-02-18T17:30:54.206Z,35.50
2019-02-18T17:33:23.594Z,31.33
2019-02-18T17:35:53.381Z,30.77
2019-02-18T17:38:22.821Z,29.90
2019-02-18T17:40:52.268Z,31.10
2019-02-18T17:43:21.718Z,31.53
2019-02-18T17:45:51.210Z,31.13
2019-02-18T17:48:20.625Z,33.03
2019-02-18T17:50:50.278Z,34.07
2019-02-18T17:53:19.793Z,35.60
2019-02-18T17:55:49.306Z,37.13
2019-02-18T17:58:18.742Z,37.20
2019-02-18T18:00:50.492Z,37.93
2019-02-18T18:03:19.898Z,38.60
2019-02-18T18:05:49.373Z,38.80
2019-02-18T18:08:18.829Z,37.07
2019-02-18T18:10:48.317Z,37.17
2019-02-18T18:13:24.934Z,38.77
2019-02-18T18:15:48.949Z,36.40
2019-02-18T18:18:18.720Z,38.27
2019-02-18T18:20:48.435Z,38.87
2019-02-18T18:23:17.941Z,39.50
2019-02-18T18:25:47.403Z,39.50
2019-02-18T18:28:16.966Z,39.50
2019-02-18T18:30:46.383Z,41.83
2019-02-18T18:33:16.173Z,42.23
2019-02-18T18:35:45.723Z,40.93
2019-02-18T18:38:15.213Z,42.30
2019-02-18T18:40:44.695Z,42.33
2019-02-18T18:43:14.167Z,42.83
2019-02-18T18:45:43.811Z,44.07
2019-02-18T18:48:13.424Z,43.63
2019-02-18T18:50:42.867Z,40.47
2019-02-18T18:53:12.345Z,40.83
2019-02-18T18:55:41.758Z,41.33
2019-02-18T18:58:11.431Z,40.43
2019-02-18T19:00:40.843Z,40.87
2019-02-18T19:03:10.344Z,40.30
2019-02-18T19:05:39.837Z,38.80
2019-02-18T19:08:09.311Z,38.30
2019-02-18T19:10:38.776Z,42.57
2019-02-18T19:13:08.200Z,40.67
2019-02-18T19:15:38.046Z,39.70
2019-02-18T19:18:07.442Z,41.80
2019-02-18T19:20:36.807Z,41.43
2019-02-18T19:23:06.234Z,39.97
2019-02-18T19:25:35.570Z,40.23
2019-02-18T19:28:05.041Z,40.80
2019-02-18T19:30:34.706Z,40.03
2019-02-18T19:33:04.138Z,41.77
2019-02-18T19:35:33.551Z,40.80
2019-02-18T19:38:03.042Z,42.00
2019-02-18T19:40:32.610Z,43.43
2019-02-18T19:43:02.218Z,43.47
2019-02-18T19:45:31.665Z,44.97
2019-02-18T19:48:01.018Z,43.97
2019-02-18T19:50:30.427Z,44.30
2019-02-18T19:52:59.869Z,45.50
2019-02-18T19:55:29.351Z,46.03
2019-02-18T19:57:59.257Z,48.10
2019-02-18T20:00:28.711Z,47.93
2019-02-18T20:02:58.139Z,47.77
2019-02-18T20:05:27.613Z,48.57
2019-02-18T20:07:56.970Z,47.90
2019-02-18T20:10:26.430Z,48.87
2019-02-18T20:12:56.207Z,49.90
2019-02-18T20:15:25.715Z,50.53
2019-02-18T20:17:55.194Z,49.00
2019-02-18T20:20:24.901Z,51.13
2019-02-18T20:22:54.277Z,50.70
2019-02-18T20:25:23.701Z,50.77
2019-02-18T20:27:53.134Z,52.23
2019-02-18T20:30:22.690Z,52.03
2019-02-18T20:32:52.193Z,54.30
2019-02-18T20:35:22.049Z,58.20
2019-02-18T20:37:51.473Z,60.27
2019-02-18T20:40:20.998Z,63.03
2019-02-18T20:42:50.513Z,58.67
2019-02-18T20:45:19.982Z,67.03
2019-02-18T20:47:49.321Z,62.17
2019-02-18T20:50:18.814Z,64.63
2019-02-18T20:52:48.406Z,63.67
2019-02-18T20:55:18.342Z,67.83
2019-02-18T20:57:47.817Z,65.30
2019-02-18T21:00:18.766Z,66.40
2019-02-18T21:02:48.222Z,72.13
2019-02-18T21:05:17.943Z,71.90
2019-02-18T21:07:47.486Z,70.13
2019-02-18T21:10:17.307Z,110.70
2019-02-18T21:12:46.787Z,79.13
2019-02-18T21:15:16.323Z,81.07
2019-02-18T21:17:45.741Z,83.13
2019-02-18T21:20:15.514Z,107.87
2019-02-18T21:22:44.927Z,91.37
2019-02-18T21:25:14.418Z,83.27
2019-02-18T21:27:43.835Z,81.93
2019-02-18T21:30:13.576Z,88.50
2019-02-18T21:32:43.071Z,85.50
2019-02-18T21:35:12.469Z,81.53
2019-02-18T21:37:42.223Z,80.63
2019-02-18T21:40:11.978Z,77.53
2019-02-18T21:42:41.463Z,75.90
2019-02-18T21:45:11.231Z,78.60
2019-02-18T21:47:40.746Z,81.93
2019-02-18T21:50:10.613Z,79.20
2019-02-18T21:52:40.336Z,76.73
2019-02-18T21:55:10.097Z,81.87
2019-02-18T21:57:39.532Z,85.33
2019-02-18T22:00:15.563Z,86.73
2019-02-18T22:02:45.044Z,101.50
2019-02-18T22:05:15.007Z,105.90
2019-02-18T22:07:44.510Z,104.87
2019-02-18T22:10:14.290Z,90.10
2019-02-18T22:12:44.017Z,104.40
2019-02-18T22:15:13.459Z,102.07
2019-02-18T22:17:42.882Z,105.67
2019-02-18T22:20:12.642Z,95.93
2019-02-18T22:22:42.080Z,86.07
2019-02-18T22:25:11.643Z,84.20
2019-02-18T22:27:41.060Z,79.90
2019-02-18T22:30:11.621Z,85.63
2019-02-18T22:32:41.082Z,85.07
2019-02-18T22:35:10.573Z,90.70
2019-02-18T22:37:40.271Z,82.33
2019-02-18T22:40:10.887Z,83.67
2019-02-18T22:42:40.248Z,79.43
2019-02-18T22:45:09.937Z,83.60
2019-02-18T22:47:39.342Z,82.63
2019-02-18T22:50:09.186Z,83.50
2019-02-18T22:52:38.758Z,86.13
2019-02-18T22:55:08.564Z,83.23
2019-02-18T22:57:38.041Z,85.80
2019-02-18T23:00:18.483Z,79.13
2019-02-18T23:02:48.002Z,80.53
2019-02-18T23:05:17.758Z,86.70
2019-02-18T23:07:47.225Z,82.93
2019-02-18T23:10:16.507Z,81.50
2019-02-18T23:12:45.910Z,84.87
2019-02-18T23:15:15.262Z,82.17
2019-02-18T23:17:44.750Z,81.83
2019-02-18T23:20:14.584Z,79.40
2019-02-18T23:22:44.037Z,86.63
2019-02-18T23:25:13.486Z,86.83
2019-02-18T23:27:43.062Z,84.03
2019-02-18T23:30:12.908Z,79.57
2019-02-18T23:32:42.337Z,80.40
2019-02-18T23:35:12.161Z,80.50
2019-02-18T23:37:41.623Z,80.40
2019-02-18T23:40:11.067Z,78.53
2019-02-18T23:42:40.439Z,75.87
2019-02-18T23:45:09.907Z,75.07
2019-02-18T23:47:39.229Z,75.03
2019-02-18T23:50:08.695Z,74.47
2019-02-18T23:52:38.216Z,74.40
2019-02-18T23:55:07.705Z,75.33
2019-02-18T23:57:37.145Z,69.73
